Time;durP1;ratioP1;P1;durP2;ratioP2;P2;SDS_P1;SDS_P2;PMS_P1;PMS_P2;Temp;Humidity;BMP_temperature;BMP_pressure;BME280_temperature;BME280_humidity;BME280_pressure;Samples;Min_cycle;Max_cycle;Signal;HPM_P1;HPM_P2
2023/10/09 00:01:09;;;;;;;;;;;;;;;13.42;48.84;102002.42;107153;1263;22501;-63
2023/10/09 00:03:37;;;;;;;;;;;;;;;13.44;48.69;102001.53;106946;1257;22522;-62
2023/10/09 00:06:05;;;;;;;;;;;;;;;13.45;48.34;101996.98;107214;1263;25333;-61
2023/10/09 00:08:32;;;;;;;;;;;;;;;13.45;48.11;101995.77;106468;1257;1002324;-61
2023/10/09 00:11:13;;;;;;;;;;;;;;;13.43;47.78;102001.02;107180;1254;24205;-62
2023/10/09 00:13:48;;;;;;;;;;;;;;;13.40;47.52;102003.52;107210;1255;25343;-62
2023/10/09 00:16:16;;;;;;;;;;;;;;;13.33;46.94;102007.96;107093;1257;25330;-59
2023/10/09 00:18:46;;;;;;;;;;;;;;;13.27;46.61;102002.63;107020;1254;25385;-61
2023/10/09 00:21:15;;;;;;;;;;;;;;;13.25;46.57;102007.02;106930;1261;25353;-61
2023/10/09 00:23:42;;;;;;;;;;;;;;;13.24;46.38;102007.91;107099;1263;25334;-62
2023/10/09 00:26:11;;;;;;;;;;;;;;;13.23;46.18;102010.36;107120;1254;25299;-62
2023/10/09 00:28:47;;;;;;;;;;;;;;;13.22;46.40;102009.66;107233;1254;22517;-65
2023/10/09 00:31:26;;;;;;;;;;;;;;;13.23;46.41;102011.77;107182;1263;25309;-62
2023/10/09 00:33:55;;;;;;;;;;;;;;;13.21;46.41;102009.33;106863;1264;24206;-62
2023/10/09 00:36:28;;;;;;;;;;;;;;;13.19;46.22;102007.63;107227;1260;25327;-64
2023/10/09 00:38:59;;;;;;;;;;;;;;;13.17;46.04;102012.00;107106;1256;25327;-61
2023/10/09 00:41:28;;;;;;;;;;;;;;;13.13;45.95;102019.04;107213;1255;25324;-64
2023/10/09 00:43:59;;;;;;;;;;;;;;;13.09;45.97;102021.85;106875;1260;24633;-64
2023/10/09 00:46:27;;;;;;;;;;;;;;;13.03;46.00;102026.42;107151;1254;22497;-62
2023/10/09 00:49:01;;;;;;;;;;;;;;;13.00;46.43;102026.11;107103;1257;22509;-63
2023/10/09 00:51:34;;;;;;;;;;;;;;;12.95;46.45;102028.95;106854;1274;25321;-63
2023/10/09 00:54:14;;;;;;;;;;;;;;;12.90;46.55;102034.06;107124;1251;25321;-62
2023/10/09 00:56:51;;;;;;;;;;;;;;;12.86;46.87;102041.41;106935;1270;24326;-64
2023/10/09 00:59:20;;;;;;;;;;;;;;;12.85;47.00;102045.61;107167;1263;25330;-63
2023/10/09 01:01:58;;;;;;;;;;;;;;;12.85;47.05;102049.96;107146;1254;25300;-61
2023/10/09 01:04:29;;;;;;;;;;;;;;;12.86;47.01;102051.16;107072;1257;25465;-60
2023/10/09 01:07:10;;;;;;;;;;;;;;;12.86;46.90;102055.67;107213;1251;25446;-62
2023/10/09 01:09:38;;;;;;;;;;;;;;;12.86;46.81;102061.96;107216;1265;25343;-61
2023/10/09 01:12:05;;;;;;;;;;;;;;;12.83;46.76;102059.73;107102;1261;23836;-61
2023/10/09 01:14:36;;;;;;;;;;;;;;;12.79;46.64;102059.95;106053;1254;1002866;-62
2023/10/09 01:17:09;;;;;;;;;;;;;;;12.74;46.53;102064.36;106293;1258;1002999;-61
2023/10/09 01:19:36;;;;;;;;;;;;;;;12.69;46.59;102063.72;107090;1254;26456;-61
2023/10/09 01:22:16;;;;;;;;;;;;;;;12.65;46.48;102071.05;107100;1262;25459;-61
2023/10/09 01:24:43;;;;;;;;;;;;;;;12.64;46.51;102071.23;106872;1269;25302;-60
2023/10/09 01:27:16;;;;;;;;;;;;;;;12.65;46.22;102073.99;107144;1253;25343;-60
2023/10/09 01:29:45;;;;;;;;;;;;;;;12.63;46.28;102075.59;107179;1254;25299;-61
2023/10/09 01:32:21;;;;;;;;;;;;;;;12.65;46.51;102080.45;107183;1254;25349;-60
2023/10/09 01:34:49;;;;;;;;;;;;;;;12.67;46.56;102086.53;107162;1256;25376;-60
2023/10/09 01:37:22;;;;;;;;;;;;;;;12.71;46.27;102087.20;107170;1253;25299;-61
2023/10/09 01:39:53;;;;;;;;;;;;;;;12.72;46.31;102092.05;106404;1254;1003731;-60
2023/10/09 01:42:25;;;;;;;;;;;;;;;12.74;46.28;102096.91;107214;1257;25382;-62
2023/10/09 01:44:53;;;;;;;;;;;;;;;12.75;46.52;102102.13;106801;1270;25321;-61
2023/10/09 01:47:21;;;;;;;;;;;;;;;12.75;46.61;102104.73;106804;1260;23745;-61
2023/10/09 01:49:53;;;;;;;;;;;;;;;12.74;46.54;102107.70;106811;1264;25306;-61
2023/10/09 01:52:20;;;;;;;;;;;;;;;12.70;46.44;102110.70;106004;1273;1003478;-61
2023/10/09 01:54:48;;;;;;;;;;;;;;;12.65;46.41;102114.58;106918;1257;25264;-62
2023/10/09 01:57:21;;;;;;;;;;;;;;;12.60;46.38;102115.48;106766;1270;24456;-61
2023/10/09 01:59:49;;;;;;;;;;;;;;;12.55;46.30;102119.55;105806;1263;1016386;-60
2023/10/09 02:02:25;;;;;;;;;;;;;;;12.47;46.46;102121.17;106808;1259;25312;-61
2023/10/09 02:04:54;;;;;;;;;;;;;;;12.41;46.54;102123.30;106739;1264;25306;-61
2023/10/09 02:07:27;;;;;;;;;;;;;;;12.38;46.77;102131.34;106821;1260;24202;-61
2023/10/09 02:09:54;;;;;;;;;;;;;;;12.36;46.84;102131.17;106934;1270;25334;-61
2023/10/09 02:12:23;;;;;;;;;;;;;;;12.37;47.05;102125.77;106822;1262;25375;-61
2023/10/09 02:14:53;;;;;;;;;;;;;;;12.36;46.66;102131.88;106691;1270;25348;-62
2023/10/09 02:17:24;;;;;;;;;;;;;;;12.31;46.56;102133.83;106051;1257;1002907;-61
2023/10/09 02:19:52;;;;;;;;;;;;;;;12.27;46.57;102134.55;106892;1259;25204;-62
2023/10/09 02:22:19;;;;;;;;;;;;;;;12.28;46.59;102132.45;106880;1267;25296;-61
2023/10/09 02:30:15;;;;;;;;;;;;;;;12.26;46.58;102133.85;107138;1251;25488;-62
2023/10/09 02:32:42;;;;;;;;;;;;;;;12.24;46.42;102136.14;107158;1263;22508;-61
2023/10/09 02:35:19;;;;;;;;;;;;;;;12.20;46.41;102139.11;107133;1251;25312;-61
2023/10/09 02:37:47;;;;;;;;;;;;;;;12.18;46.54;102142.43;107058;1256;25309;-60
2023/10/09 02:40:29;;;;;;;;;;;;;;;12.16;46.43;102142.45;107121;1270;25322;-60
2023/10/09 02:42:58;;;;;;;;;;;;;;;12.12;46.43;102144.20;106919;1264;25324;-62
2023/10/09 02:45:28;;;;;;;;;;;;;;;12.09;46.48;102147.18;107014;1250;22503;-62
2023/10/09 02:47:55;;;;;;;;;;;;;;;12.06;46.57;102143.38;106899;1254;23841;-61
2023/10/09 02:50:28;;;;;;;;;;;;;;;12.06;46.58;102140.95;106200;1263;1003655;-63
2023/10/09 02:53:00;;;;;;;;;;;;;;;12.06;46.43;102143.90;107027;1254;25372;-64
2023/10/09 02:55:28;;;;;;;;;;;;;;;12.05;46.32;102143.90;106901;1267;25343;-64
2023/10/09 02:58:05;;;;;;;;;;;;;;;12.07;46.36;102147.20;106952;1256;24049;-60
2023/10/09 03:00:35;;;;;;;;;;;;;;;12.11;46.32;102145.95;107122;1256;25334;-61
2023/10/09 03:03:06;;;;;;;;;;;;;;;12.13;46.12;102145.23;106387;1266;1003101;-61
2023/10/09 03:05:33;;;;;;;;;;;;;;;12.15;45.82;102144.54;107096;1254;25305;-62
2023/10/09 03:08:00;;;;;;;;;;;;;;;12.16;45.69;102140.35;107116;1253;25323;-62
2023/10/09 03:10:29;;;;;;;;;;;;;;;12.17;45.66;102139.65;106347;1250;1003212;-62
2023/10/09 03:12:56;;;;;;;;;;;;;;;12.18;45.49;102148.52;106886;1258;25324;-61
2023/10/09 03:15:23;;;;;;;;;;;;;;;12.18;45.60;102152.17;107073;1254;25315;-62
2023/10/09 03:17:51;;;;;;;;;;;;;;;12.20;45.50;102160.16;107048;1257;25462;-61
2023/10/09 03:20:18;;;;;;;;;;;;;;;12.21;45.37;102158.23;107176;1254;25296;-60
2023/10/09 03:22:47;;;;;;;;;;;;;;;12.22;45.23;102158.75;107160;1254;25324;-61
2023/10/09 03:25:16;;;;;;;;;;;;;;;12.22;45.15;102163.96;107128;1256;25376;-61
2023/10/09 03:27:46;;;;;;;;;;;;;;;12.22;45.05;102166.93;107145;1255;25299;-60
2023/10/09 03:30:22;;;;;;;;;;;;;;;12.21;44.86;102173.04;107171;1263;25308;-62
2023/10/09 03:32:52;;;;;;;;;;;;;;;12.20;45.03;102185.21;107183;1254;25466;-61
2023/10/09 03:35:27;;;;;;;;;;;;;;;12.19;45.00;102190.63;107165;1251;25446;-61
2023/10/09 03:38:00;;;;;;;;;;;;;;;12.18;45.13;102192.01;107085;1257;25309;-60
2023/10/09 03:40:27;;;;;;;;;;;;;;;12.17;44.91;102195.67;106434;1251;1003034;-62
2023/10/09 03:42:54;;;;;;;;;;;;;;;12.15;44.84;102193.24;106892;1263;25305;-61
2023/10/09 03:45:35;;;;;;;;;;;;;;;12.13;44.82;102199.69;107185;1251;25454;-60
2023/10/09 03:48:05;;;;;;;;;;;;;;;12.10;44.93;102199.70;107125;1257;25391;-61
2023/10/09 03:50:38;;;;;;;;;;;;;;;12.09;44.99;102201.63;107128;1263;25314;-60
2023/10/09 03:53:08;;;;;;;;;;;;;;;12.07;44.84;102206.51;106898;1270;25309;-61
2023/10/09 03:55:55;;;;;;;;;;;;;;;12.02;44.95;102209.66;106077;1269;1003392;-61
2023/10/09 03:58:22;;;;;;;;;;;;;;;12.00;45.04;102209.84;106831;1263;22513;-61
2023/10/09 04:00:49;;;;;;;;;;;;;;;11.97;44.99;102206.73;106658;1267;25421;-62
2023/10/09 04:03:16;;;;;;;;;;;;;;;11.95;44.97;102213.52;106067;1260;1002954;-59
2023/10/09 04:05:44;;;;;;;;;;;;;;;11.91;44.95;102213.20;106432;1257;25341;-61
2023/10/09 04:08:21;;;;;;;;;;;;;;;11.88;45.12;102219.64;106641;1257;25331;-60
2023/10/09 04:10:52;;;;;;;;;;;;;;;11.85;45.21;102219.46;106678;1266;25347;-59
2023/10/09 04:13:23;;;;;;;;;;;;;;;11.83;45.11;102220.36;106661;1253;22518;-60
2023/10/09 04:15:52;;;;;;;;;;;;;;;11.79;45.21;102217.06;106830;1257;25526;-60
2023/10/09 04:18:20;;;;;;;;;;;;;;;11.74;44.96;102219.33;107164;1255;24317;-60
2023/10/09 04:20:55;;;;;;;;;;;;;;;11.67;45.05;102221.61;107070;1263;25214;-60
2023/10/09 04:23:34;;;;;;;;;;;;;;;11.60;45.25;102223.69;106431;1262;1003378;-59
2023/10/09 04:26:10;;;;;;;;;;;;;;;11.54;45.27;102225.61;107085;1263;25312;-60
2023/10/09 04:28:37;;;;;;;;;;;;;;;11.47;45.35;102229.28;107135;1250;25308;-61
2023/10/09 04:31:07;;;;;;;;;;;;;;;11.43;45.54;102232.77;107078;1250;25346;-63
2023/10/09 04:41:51;;;;;;;;;;;;;;;11.44;45.76;102244.41;106869;1259;25446;-59
2023/10/09 04:53:22;;;;;;;;;;;;;;;11.45;45.89;102249.97;107127;1255;23127;-62
2023/10/09 04:57:38;;;;;;;;;;;;;;;11.42;45.92;102248.77;106897;1253;22530;-59
2023/10/09 05:02:56;;;;;;;;;;;;;;;11.39;45.89;102264.39;107108;1254;25306;-59
2023/10/09 05:08:21;;;;;;;;;;;;;;;11.33;45.89;102265.27;107107;1251;25306;-60
2023/10/09 05:16:26;;;;;;;;;;;;;;;11.30;45.83;102270.83;106867;1259;25446;-60
2023/10/09 05:18:59;;;;;;;;;;;;;;;11.30;45.87;102278.30;107112;1254;25299;-62
2023/10/09 05:21:36;;;;;;;;;;;;;;;11.30;45.91;102280.55;107103;1260;25217;-60
2023/10/09 05:29:34;;;;;;;;;;;;;;;11.38;46.09;102289.42;106977;1256;24330;-60
2023/10/09 05:34:36;;;;;;;;;;;;;;;11.53;45.71;102295.84;107113;1256;25343;-60
2023/10/09 05:47:53;;;;;;;;;;;;;;;11.80;45.64;102319.13;107126;1251;25204;-59
2023/10/09 06:03:16;;;;;;;;;;;;;;;12.19;44.65;102342.14;106843;1266;25305;-60
2023/10/09 06:04:04;;;;;;;;;;;;;;;12.27;44.57;102338.83;106356;1267;1003552;-60
2023/10/09 06:06:34;;;;;;;;;;;;;;;12.36;44.21;102338.95;107123;1254;25455;-59
2023/10/09 06:11:49;;;;;;;;;;;;;;;12.63;43.92;102335.17;107112;1253;22503;-62
2023/10/09 06:19:26;;;;;;;;;;;;;;;13.01;43.26;102339.30;107142;1251;25295;-60
2023/10/09 06:24:42;;;;;;;;;;;;;;;13.17;42.81;102342.37;107144;1263;25337;-60
2023/10/09 06:29:36;;;;;;;;;;;;;;;13.23;42.78;102342.67;106888;1263;22508;-60
2023/10/09 06:35:14;;;;;;;;;;;;;;;13.28;42.55;102353.95;107189;1257;25327;-61
2023/10/09 06:45:55;;;;;;;;;;;;;;;13.57;41.79;102359.29;107122;1251;25343;-61
2023/10/09 06:51:15;;;;;;;;;;;;;;;13.54;41.39;102360.02;107154;1254;25401;-60
2023/10/09 06:59:15;;;;;;;;;;;;;;;13.53;41.10;102372.76;106326;1254;1003836;-61
2023/10/09 07:01:42;;;;;;;;;;;;;;;13.52;41.18;102376.94;106973;1256;25312;-61
2023/10/09 07:04:19;;;;;;;;;;;;;;;13.53;41.15;102377.29;107049;1260;23870;-61
2023/10/09 07:06:56;;;;;;;;;;;;;;;13.53;41.28;102384.61;107195;1260;22514;-63
2023/10/09 07:09:27;;;;;;;;;;;;;;;13.54;41.31;102376.95;107217;1254;25334;-62
2023/10/09 07:16:59;;;;;;;;;;;;;;;13.58;41.04;102368.02;107050;1256;25385;-60
2023/10/09 07:19:56;;;;;;;;;;;;;;;13.59;40.82;102368.88;107045;1256;22494;-61
2023/10/09 07:22:29;;;;;;;;;;;;;;;13.57;40.64;102370.98;107202;1253;22504;-61
2023/10/09 07:33:16;;;;;;;;;;;;;;;13.69;40.94;102378.02;107111;1251;25337;-61
2023/10/09 07:38:11;;;;;;;;;;;;;;;13.78;40.89;102380.90;106862;1272;25411;-61
2023/10/09 07:43:27;;;;;;;;;;;;;;;13.81;40.48;102363.24;106801;1260;25356;-60
2023/10/09 07:46:29;;;;;;;;;;;;;;;13.80;40.42;102365.17;106170;1254;1002861;-60
2023/10/09 07:48:53;;;;;;;;;;;;;;;13.82;40.71;102367.77;107048;1251;24217;-62
2023/10/09 07:51:23;;;;;;;;;;;;;;;13.86;40.62;102364.60;106267;1267;1002751;-59
2023/10/09 07:53:56;;;;;;;;;;;;;;;13.89;40.04;102356.38;107186;1254;25305;-60
2023/10/09 07:56:24;;;;;;;;;;;;;;;13.92;39.98;102351.11;107152;1260;26938;-60
2023/10/09 07:58:51;;;;;;;;;;;;;;;13.95;39.68;102354.58;106882;1257;25331;-60
2023/10/09 08:01:36;;;;;;;;;;;;;;;13.98;39.51;102350.54;107112;1251;25379;-60
2023/10/09 08:04:14;;;;;;;;;;;;;;;13.99;39.62;102354.19;107176;1263;25324;-61
2023/10/09 08:06:45;;;;;;;;;;;;;;;14.03;39.95;102354.31;106856;1254;359807;-61
2023/10/09 08:09:47;;;;;;;;;;;;;;;14.11;40.30;102349.52;106233;1254;1003663;-59
2023/10/09 08:12:39;;;;;;;;;;;;;;;14.17;40.20;102349.09;106850;1259;25375;-61
2023/10/09 08:17:53;;;;;;;;;;;;;;;14.21;39.25;102333.69;107018;1256;25351;-61
2023/10/09 08:20:24;;;;;;;;;;;;;;;14.23;39.28;102331.92;107196;1256;25353;-61
2023/10/09 08:22:58;;;;;;;;;;;;;;;14.24;39.28;102332.60;107071;1251;25305;-61
2023/10/09 08:25:26;;;;;;;;;;;;;;;14.25;39.01;102330.66;106925;1259;25426;-61
2023/10/09 08:28:39;;;;;;;;;;;;;;;14.27;39.04;102328.56;107121;1260;24231;-59
2023/10/09 08:36:01;;;;;;;;;;;;;;;14.34;38.92;102324.49;107130;1263;25337;-61
2023/10/09 08:38:33;;;;;;;;;;;;;;;14.37;38.63;102324.27;106887;1269;25350;-61
2023/10/09 08:41:09;;;;;;;;;;;;;;;14.39;38.00;102328.62;107073;1266;25475;-62
2023/10/09 08:43:36;;;;;;;;;;;;;;;14.44;38.58;102338.34;107127;1266;25398;-59
2023/10/09 08:46:04;;;;;;;;;;;;;;;14.49;38.37;102334.60;106320;1254;1003298;-61
2023/10/09 08:48:31;;;;;;;;;;;;;;;14.53;37.98;102336.98;106061;1257;1002925;-59
2023/10/09 08:50:58;;;;;;;;;;;;;;;14.56;37.60;102342.02;107063;1250;25427;-61
2023/10/09 08:53:27;;;;;;;;;;;;;;;14.59;37.66;102344.94;107056;1254;25420;-61
2023/10/09 08:55:55;;;;;;;;;;;;;;;14.61;37.69;102348.58;107093;1261;22481;-61
2023/10/09 08:58:32;;;;;;;;;;;;;;;14.67;37.60;102353.91;107107;1257;25394;-61
2023/10/09 09:01:00;;;;;;;;;;;;;;;14.72;37.65;102347.73;106090;1273;1002925;-63
2023/10/09 09:03:37;;;;;;;;;;;;;;;14.80;37.37;102345.02;107003;1260;25414;-61
2023/10/09 09:06:04;;;;;;;;;;;;;;;14.88;37.31;102339.48;107095;1254;25383;-61
2023/10/09 09:08:36;;;;;;;;;;;;;;;14.96;37.18;102339.72;107126;1254;22494;-60
2023/10/09 09:11:13;;;;;;;;;;;;;;;15.03;36.22;102333.66;107154;1267;25462;-60
2023/10/09 09:13:41;;;;;;;;;;;;;;;15.10;36.29;102327.95;106338;1266;1003461;-60
2023/10/09 09:16:18;;;;;;;;;;;;;;;15.15;36.47;102327.87;107119;1266;25368;-60
2023/10/09 09:18:48;;;;;;;;;;;;;;;15.17;36.05;102333.27;107117;1263;22771;-60
2023/10/09 09:21:22;;;;;;;;;;;;;;;15.19;35.85;102330.10;107138;1257;25306;-61
2023/10/09 09:23:57;;;;;;;;;;;;;;;15.23;36.26;102323.02;107156;1251;25334;-61
2023/10/09 09:26:37;;;;;;;;;;;;;;;15.28;36.45;102324.02;107154;1263;24206;-60
2023/10/09 09:29:05;;;;;;;;;;;;;;;15.31;36.26;102321.34;107136;1256;23506;-60
2023/10/09 09:31:37;;;;;;;;;;;;;;;15.33;36.37;102314.66;107055;1269;25334;-60
2023/10/09 09:34:13;;;;;;;;;;;;;;;15.37;36.50;102313.70;107261;1264;25423;-60
2023/10/09 09:36:53;;;;;;;;;;;;;;;15.42;36.76;102321.85;107269;1255;25407;-61
2023/10/09 09:39:26;;;;;;;;;;;;;;;15.49;36.65;102315.64;107201;1250;25302;-60
2023/10/09 09:42:13;;;;;;;;;;;;;;;15.56;36.45;102303.61;107021;1263;23893;-61
2023/10/09 09:44:43;;;;;;;;;;;;;;;15.62;36.91;102298.95;107027;1254;25324;-61
2023/10/09 09:47:13;;;;;;;;;;;;;;;15.67;36.05;102299.56;106420;1272;1002273;-60
2023/10/09 09:49:41;;;;;;;;;;;;;;;15.75;35.62;102295.40;106359;1254;1003406;-60
2023/10/09 09:52:11;;;;;;;;;;;;;;;15.82;35.88;102299.28;106896;1267;25414;-61
2023/10/09 09:54:38;;;;;;;;;;;;;;;15.88;35.50;102296.20;107136;1267;25341;-61
2023/10/09 09:57:10;;;;;;;;;;;;;;;15.91;35.48;102291.95;107149;1254;25331;-61
2023/10/09 09:59:40;;;;;;;;;;;;;;;15.95;35.83;102287.64;107160;1254;25451;-61
2023/10/09 10:02:20;;;;;;;;;;;;;;;16.00;36.45;102287.54;106230;1267;1003553;-61
2023/10/09 10:04:50;;;;;;;;;;;;;;;16.04;36.01;102282.91;106841;1259;22502;-61
2023/10/09 10:07:21;;;;;;;;;;;;;;;16.06;35.72;102277.10;106789;1270;26522;-61
2023/10/09 10:09:48;;;;;;;;;;;;;;;16.07;35.94;102272.70;106736;1270;25350;-61
2023/10/09 10:12:17;;;;;;;;;;;;;;;16.09;36.42;102261.11;106535;1260;24202;-61
2023/10/09 10:15:08;;;;;;;;;;;;;;;16.11;36.54;102258.09;106695;1264;22613;-62
2023/10/09 10:18:00;;;;;;;;;;;;;;;16.13;35.83;102261.55;106266;1265;25548;-61
2023/10/09 10:20:31;;;;;;;;;;;;;;;16.16;34.89;102258.17;106431;1270;23318;-62
2023/10/09 10:23:17;;;;;;;;;;;;;;;16.19;35.04;102246.72;105649;1267;1003571;-61
2023/10/09 10:25:49;;;;;;;;;;;;;;;16.25;34.61;102246.94;106755;1269;25385;-61
2023/10/09 10:28:28;;;;;;;;;;;;;;;16.30;35.41;102249.29;105894;1274;1003032;-62
2023/10/09 10:31:00;;;;;;;;;;;;;;;16.33;35.42;102257.29;106791;1259;25341;-61
2023/10/09 10:33:35;;;;;;;;;;;;;;;16.37;35.18;102248.27;106769;1265;24388;-62
2023/10/09 10:36:06;;;;;;;;;;;;;;;16.41;34.52;102234.16;106974;1259;27044;-61
2023/10/09 10:38:49;;;;;;;;;;;;;;;16.47;34.75;102234.38;107032;1256;25792;-61
2023/10/09 10:41:16;;;;;;;;;;;;;;;16.51;35.09;102230.80;107087;1266;25296;-61
2023/10/09 10:46:24;;;;;;;;;;;;;;;16.63;34.41;102220.90;107123;1257;25284;-61
2023/10/09 10:49:00;;;;;;;;;;;;;;;16.71;34.15;102221.39;106725;1272;25306;-60
2023/10/09 10:51:40;;;;;;;;;;;;;;;16.76;35.12;102218.99;107036;1254;25302;-61
2023/10/09 10:56:57;;;;;;;;;;;;;;;16.80;33.08;102205.92;107203;1263;25382;-63
2023/10/09 10:59:25;;;;;;;;;;;;;;;16.82;32.18;102212.54;107181;1254;25324;-62
2023/10/09 11:07:06;;;;;;;;;;;;;;;17.05;31.85;102204.42;106873;1269;25187;-61
2023/10/09 11:12:39;;;;;;;;;;;;;;;17.23;31.62;102199.39;107128;1266;25315;-61
2023/10/09 11:15:08;;;;;;;;;;;;;;;17.20;30.95;102196.48;107088;1257;25337;-60
2023/10/09 11:17:35;;;;;;;;;;;;;;;17.22;31.14;102197.48;107123;1253;22503;-61
2023/10/09 11:20:22;;;;;;;;;;;;;;;17.27;31.23;102191.73;107153;1271;25455;-61
2023/10/09 11:25:52;;;;;;;;;;;;;;;17.39;30.89;102191.75;106744;1274;25471;-61
2023/10/09 11:31:06;;;;;;;;;;;;;;;17.45;30.67;102190.20;107054;1274;25306;-61
2023/10/09 11:33:46;;;;;;;;;;;;;;;17.50;30.46;102187.10;107133;1256;25366;-61
2023/10/09 11:36:13;;;;;;;;;;;;;;;17.56;30.36;102188.16;107215;1266;22502;-61
2023/10/09 11:38:45;;;;;;;;;;;;;;;17.61;29.94;102185.91;107187;1257;25296;-60
2023/10/09 11:41:41;;;;;;;;;;;;;;;17.65;29.74;102182.63;107147;1267;25447;-61
2023/10/09 11:44:05;;;;;;;;;;;;;;;17.69;29.50;102178.14;107127;1270;25296;-62
2023/10/09 11:54:33;;;;;;;;;;;;;;;17.84;28.87;102172.09;107103;1259;25772;-60
2023/10/09 11:57:03;;;;;;;;;;;;;;;17.96;28.27;102159.27;106967;1269;25320;-60
2023/10/09 11:59:41;;;;;;;;;;;;;;;17.98;28.27;102159.91;107091;1267;25308;-61
2023/10/09 12:02:11;;;;;;;;;;;;;;;17.97;27.97;102158.02;107144;1256;25404;-60
2023/10/09 12:04:41;;;;;;;;;;;;;;;17.96;27.99;102156.09;106852;1267;25394;-61
2023/10/09 12:07:12;;;;;;;;;;;;;;;18.00;27.67;102156.00;106887;1272;25455;-62
2023/10/09 12:09:39;;;;;;;;;;;;;;;18.03;28.00;102147.48;107184;1257;25305;-60
2023/10/09 12:12:09;;;;;;;;;;;;;;;18.05;28.12;102148.63;107074;1266;26473;-61
2023/10/09 12:14:37;;;;;;;;;;;;;;;18.04;27.80;102141.46;107086;1263;24369;-61
2023/10/09 12:17:07;;;;;;;;;;;;;;;18.05;28.13;102143.02;107043;1263;22517;-60
2023/10/09 12:19:34;;;;;;;;;;;;;;;18.07;28.15;102136.80;106785;1267;25296;-60
2023/10/09 12:22:03;;;;;;;;;;;;;;;18.09;28.35;102144.47;106999;1267;24202;-63
2023/10/09 12:24:31;;;;;;;;;;;;;;;18.12;27.88;102142.95;107190;1267;25388;-59
2023/10/09 12:26:58;;;;;;;;;;;;;;;18.16;27.68;102140.91;107068;1257;25317;-59
2023/10/09 12:29:29;;;;;;;;;;;;;;;18.20;27.50;102125.67;106860;1254;25373;-60
2023/10/09 12:31:59;;;;;;;;;;;;;;;18.24;27.53;102115.70;107090;1254;25333;-60
2023/10/09 12:34:26;;;;;;;;;;;;;;;18.27;27.45;102109.98;107173;1270;23231;-62
2023/10/09 12:37:00;;;;;;;;;;;;;;;18.28;27.06;102109.27;107119;1254;25373;-59
2023/10/09 12:39:33;;;;;;;;;;;;;;;18.28;27.34;102105.21;107109;1263;25372;-60
2023/10/09 12:42:06;;;;;;;;;;;;;;;18.29;27.77;102106.94;107083;1266;25333;-60
2023/10/09 12:44:39;;;;;;;;;;;;;;;18.32;27.78;102102.10;107070;1257;25373;-62
2023/10/09 12:47:06;;;;;;;;;;;;;;;18.34;27.59;102106.80;107085;1267;25558;-61
2023/10/09 12:49:33;;;;;;;;;;;;;;;18.35;27.71;102104.12;107140;1269;25327;-62
2023/10/09 12:52:00;;;;;;;;;;;;;;;18.38;27.81;102104.89;106134;1273;1003724;-61
2023/10/09 12:54:27;;;;;;;;;;;;;;;18.41;27.91;102104.27;107046;1267;25328;-61
2023/10/09 12:56:55;;;;;;;;;;;;;;;18.43;28.26;102104.73;107007;1272;22702;-61
2023/10/09 12:59:24;;;;;;;;;;;;;;;18.44;27.44;102103.32;106739;1266;25327;-61
2023/10/09 13:01:57;;;;;;;;;;;;;;;18.45;26.98;102095.91;106720;1267;24331;-60
2023/10/09 13:04:31;;;;;;;;;;;;;;;18.45;26.95;102091.88;106993;1271;25387;-60
2023/10/09 13:07:02;;;;;;;;;;;;;;;18.43;26.47;102087.16;106974;1259;22497;-61
2023/10/09 13:10:07;;;;;;;;;;;;;;;18.38;26.13;102088.38;107177;1267;25376;-61
2023/10/09 13:12:32;;;;;;;;;;;;;;;18.31;26.03;102084.75;107188;1267;25420;-61
2023/10/09 13:14:59;;;;;;;;;;;;;;;18.25;26.29;102081.23;106760;1273;25426;-61
2023/10/09 13:17:27;;;;;;;;;;;;;;;18.21;26.88;102082.60;107137;1263;25321;-61
2023/10/09 13:19:56;;;;;;;;;;;;;;;18.22;26.30;102081.54;106863;1267;25401;-61
2023/10/09 13:22:23;;;;;;;;;;;;;;;18.16;26.59;102077.66;106990;1271;22509;-61
2023/10/09 13:24:52;;;;;;;;;;;;;;;18.13;26.56;102079.18;107253;1254;25401;-61
2023/10/09 13:27:21;;;;;;;;;;;;;;;18.10;26.69;102078.58;107176;1273;26576;-60
2023/10/09 13:29:48;;;;;;;;;;;;;;;18.08;26.81;102078.11;107115;1254;24133;-60
2023/10/09 13:32:16;;;;;;;;;;;;;;;18.05;26.67;102075.92;106898;1272;25333;-60
2023/10/09 13:34:46;;;;;;;;;;;;;;;18.02;26.72;102072.52;107153;1254;25286;-60
2023/10/09 13:37:13;;;;;;;;;;;;;;;17.99;26.98;102069.63;107078;1254;25306;-60
2023/10/09 13:39:52;;;;;;;;;;;;;;;17.96;27.13;102074.45;107137;1267;25363;-61
2023/10/09 13:42:19;;;;;;;;;;;;;;;17.93;26.89;102072.30;107120;1254;25379;-60
2023/10/09 13:44:48;;;;;;;;;;;;;;;17.87;26.79;102074.90;107134;1260;24986;-60
2023/10/09 13:47:25;;;;;;;;;;;;;;;17.83;26.78;102074.86;107184;1257;23234;-61
2023/10/09 13:49:53;;;;;;;;;;;;;;;17.78;27.08;102066.05;107051;1273;25379;-60
2023/10/09 13:52:21;;;;;;;;;;;;;;;17.73;27.58;102071.14;107135;1267;25293;-61
2023/10/09 13:54:49;;;;;;;;;;;;;;;17.68;27.66;102073.55;107090;1269;25293;-60
2023/10/09 13:57:16;;;;;;;;;;;;;;;17.64;27.81;102075.81;107150;1266;25433;-60
2023/10/09 13:59:52;;;;;;;;;;;;;;;17.61;28.05;102079.55;107137;1254;25443;-61
2023/10/09 14:02:21;;;;;;;;;;;;;;;17.59;27.89;102083.30;107139;1254;22759;-61
2023/10/09 14:04:48;;;;;;;;;;;;;;;17.56;27.91;102080.59;106958;1269;25362;-61
2023/10/09 14:07:20;;;;;;;;;;;;;;;17.54;28.23;102081.20;107162;1263;25455;-61
2023/10/09 14:09:56;;;;;;;;;;;;;;;17.49;28.34;102082.40;107160;1254;22531;-62
2023/10/09 14:12:24;;;;;;;;;;;;;;;17.41;27.82;102079.80;106158;1260;1003246;-63
2023/10/09 14:14:53;;;;;;;;;;;;;;;17.37;27.91;102071.14;106391;1256;1003085;-61
2023/10/09 14:17:25;;;;;;;;;;;;;;;17.34;28.34;102065.23;107160;1266;25286;-61
2023/10/09 14:19:52;;;;;;;;;;;;;;;17.31;28.41;102063.23;107146;1256;22531;-63
2023/10/09 14:22:19;;;;;;;;;;;;;;;17.30;28.72;102060.45;106734;1271;22750;-61
2023/10/09 14:24:47;;;;;;;;;;;;;;;17.28;28.82;102060.16;107063;1267;26589;-61
2023/10/09 14:27:20;;;;;;;;;;;;;;;17.27;28.99;102060.73;106742;1272;23476;-61
2023/10/09 14:29:47;;;;;;;;;;;;;;;17.26;29.10;102059.36;106856;1274;25348;-62
2023/10/09 14:32:14;;;;;;;;;;;;;;;17.24;28.92;102059.06;107152;1257;22515;-63
2023/10/09 14:34:51;;;;;;;;;;;;;;;17.22;28.99;102053.86;107174;1264;25333;-60
2023/10/09 14:37:19;;;;;;;;;;;;;;;17.20;29.29;102054.09;106969;1267;25376;-61
2023/10/09 14:39:49;;;;;;;;;;;;;;;17.19;29.26;102057.27;106848;1259;25296;-61
2023/10/09 14:42:17;;;;;;;;;;;;;;;17.18;29.36;102061.35;107107;1254;25324;-62
2023/10/09 14:44:47;;;;;;;;;;;;;;;17.15;29.38;102068.79;107123;1257;25305;-61
2023/10/09 14:47:14;;;;;;;;;;;;;;;17.13;29.42;102065.68;107186;1266;25341;-61
2023/10/09 14:49:46;;;;;;;;;;;;;;;17.10;29.84;102058.94;107233;1257;25455;-60
2023/10/09 14:52:16;;;;;;;;;;;;;;;17.08;29.96;102054.09;107172;1257;25312;-61
2023/10/09 14:54:46;;;;;;;;;;;;;;;17.05;30.14;102058.38;107147;1257;25283;-60
2023/10/09 14:57:13;;;;;;;;;;;;;;;17.04;30.07;102058.59;107146;1267;22703;-61
2023/10/09 14:59:42;;;;;;;;;;;;;;;17.01;29.61;102057.95;107063;1267;25414;-61
2023/10/09 15:02:12;;;;;;;;;;;;;;;16.99;29.32;102050.13;107095;1256;25433;-61
2023/10/09 15:04:39;;;;;;;;;;;;;;;17.00;29.40;102049.41;107002;1263;22519;-62
2023/10/09 15:07:09;;;;;;;;;;;;;;;17.01;29.29;102047.09;107178;1257;25411;-59
2023/10/09 15:09:36;;;;;;;;;;;;;;;16.99;29.19;102047.32;106388;1254;1003073;-60
2023/10/09 15:12:07;;;;;;;;;;;;;;;16.98;29.36;102048.77;106887;1260;24336;-62
2023/10/09 15:14:34;;;;;;;;;;;;;;;16.96;29.65;102047.40;107266;1250;25712;-60
2023/10/09 15:17:02;;;;;;;;;;;;;;;16.94;29.69;102044.98;107241;1268;25296;-61
2023/10/09 15:19:30;;;;;;;;;;;;;;;16.92;29.70;102041.02;107094;1254;22526;-62